sensor_id;sensor_type;location;lat;lon;timestamp;temperature;humidity
3488;DHT22;38546;48.170;11.724;2023-07-20T00:00:05;21.70;97.60
3488;DHT22;38546;48.170;11.724;2023-07-20T00:03:13;21.70;97.80
3488;DHT22;38546;48.170;11.724;2023-07-20T00:06:08;21.50;98.10
3488;DHT22;38546;48.170;11.724;2023-07-20T00:08:57;21.40;98.00
3488;DHT22;38546;48.170;11.724;2023-07-20T00:11:52;21.50;98.00
3488;DHT22;38546;48.170;11.724;2023-07-20T00:14:42;21.40;98.10
3488;DHT22;38546;48.170;11.724;2023-07-20T00:17:31;21.30;98.20
3488;DHT22;38546;48.170;11.724;2023-07-20T00:20:21;21.30;98.30
3488;DHT22;38546;48.170;11.724;2023-07-20T00:23:12;21.20;98.60
3488;DHT22;38546;48.170;11.724;2023-07-20T00:26:02;21.30;98.50
3488;DHT22;38546;48.170;11.724;2023-07-20T00:28:51;21.20;98.50
3488;DHT22;38546;48.170;11.724;2023-07-20T00:31:40;21.20;98.60
3488;DHT22;38546;48.170;11.724;2023-07-20T00:34:30;21.20;98.50
3488;DHT22;38546;48.170;11.724;2023-07-20T00:37:20;21.20;98.60
3488;DHT22;38546;48.170;11.724;2023-07-20T00:40:10;21.10;98.60
3488;DHT22;38546;48.170;11.724;2023-07-20T00:42:59;21.10;98.80
3488;DHT22;38546;48.170;11.724;2023-07-20T00:45:49;21.10;98.80
3488;DHT22;38546;48.170;11.724;2023-07-20T00:48:38;21.10;98.80
3488;DHT22;38546;48.170;11.724;2023-07-20T00:51:28;21.10;99.20
3488;DHT22;38546;48.170;11.724;2023-07-20T00:54:18;21.20;98.70
3488;DHT22;38546;48.170;11.724;2023-07-20T00:57:08;21.30;98.60
3488;DHT22;38546;48.170;11.724;2023-07-20T00:59:58;21.20;98.80
3488;DHT22;38546;48.170;11.724;2023-07-20T01:02:47;21.20;98.90
3488;DHT22;38546;48.170;11.724;2023-07-20T01:06:00;21.10;98.70
3488;DHT22;38546;48.170;11.724;2023-07-20T01:09:19;21.10;98.80
3488;DHT22;38546;48.170;11.724;2023-07-20T01:12:24;21.10;98.90
3488;DHT22;38546;48.170;11.724;2023-07-20T01:15:16;21.10;99.00
3488;DHT22;38546;48.170;11.724;2023-07-20T01:18:05;21.00;99.00
3488;DHT22;38546;48.170;11.724;2023-07-20T01:20:59;20.90;99.20
3488;DHT22;38546;48.170;11.724;2023-07-20T01:25:58;20.90;99.30
3488;DHT22;38546;48.170;11.724;2023-07-20T01:32:00;20.90;99.40
3488;DHT22;38546;48.170;11.724;2023-07-20T01:34:52;21.00;99.50
3488;DHT22;38546;48.170;11.724;2023-07-20T01:37:44;20.90;99.40
3488;DHT22;38546;48.170;11.724;2023-07-20T01:40:35;21.00;99.40
3488;DHT22;38546;48.170;11.724;2023-07-20T01:43:25;21.10;99.30
3488;DHT22;38546;48.170;11.724;2023-07-20T01:46:14;21.10;99.30
3488;DHT22;38546;48.170;11.724;2023-07-20T01:49:04;21.00;99.40
3488;DHT22;38546;48.170;11.724;2023-07-20T01:51:53;21.00;99.60
3488;DHT22;38546;48.170;11.724;2023-07-20T01:54:42;21.00;99.40
3488;DHT22;38546;48.170;11.724;2023-07-20T01:57:32;21.10;99.50
3488;DHT22;38546;48.170;11.724;2023-07-20T02:00:21;21.00;99.50
3488;DHT22;38546;48.170;11.724;2023-07-20T02:03:13;21.20;99.20
3488;DHT22;38546;48.170;11.724;2023-07-20T02:06:03;21.20;99.20
3488;DHT22;38546;48.170;11.724;2023-07-20T02:08:52;21.20;99.00
3488;DHT22;38546;48.170;11.724;2023-07-20T02:11:42;21.10;99.20
3488;DHT22;38546;48.170;11.724;2023-07-20T02:14:31;21.10;99.40
3488;DHT22;38546;48.170;11.724;2023-07-20T02:17:20;21.00;99.30
3488;DHT22;38546;48.170;11.724;2023-07-20T02:20:10;21.00;99.00
3488;DHT22;38546;48.170;11.724;2023-07-20T02:23:00;21.00;99.00
3488;DHT22;38546;48.170;11.724;2023-07-20T02:25:50;21.10;98.10
3488;DHT22;38546;48.170;11.724;2023-07-20T02:28:39;21.10;97.80
3488;DHT22;38546;48.170;11.724;2023-07-20T02:31:28;21.10;97.70
3488;DHT22;38546;48.170;11.724;2023-07-20T02:34:17;21.00;97.60
3488;DHT22;38546;48.170;11.724;2023-07-20T02:37:06;21.00;97.60
3488;DHT22;38546;48.170;11.724;2023-07-20T02:39:55;21.00;97.60
3488;DHT22;38546;48.170;11.724;2023-07-20T02:42:45;21.00;97.60
3488;DHT22;38546;48.170;11.724;2023-07-20T02:45:35;21.00;97.60
3488;DHT22;38546;48.170;11.724;2023-07-20T02:48:24;21.00;97.70
3488;DHT22;38546;48.170;11.724;2023-07-20T02:51:13;20.90;97.90
3488;DHT22;38546;48.170;11.724;2023-07-20T02:54:03;20.80;98.10
3488;DHT22;38546;48.170;11.724;2023-07-20T02:56:52;20.80;98.20
3488;DHT22;38546;48.170;11.724;2023-07-20T02:59:42;20.70;98.30
3488;DHT22;38546;48.170;11.724;2023-07-20T03:02:32;20.70;98.30
3488;DHT22;38546;48.170;11.724;2023-07-20T03:05:22;20.70;98.50
3488;DHT22;38546;48.170;11.724;2023-07-20T03:08:14;20.70;98.60
3488;DHT22;38546;48.170;11.724;2023-07-20T03:11:03;20.80;98.70
3488;DHT22;38546;48.170;11.724;2023-07-20T03:13:52;20.90;99.10
3488;DHT22;38546;48.170;11.724;2023-07-20T03:16:42;20.80;99.90
3488;DHT22;38546;48.170;11.724;2023-07-20T03:19:31;20.60;99.90
3488;DHT22;38546;48.170;11.724;2023-07-20T03:22:20;20.30;99.90
3488;DHT22;38546;48.170;11.724;2023-07-20T03:25:11;20.30;99.90
3488;DHT22;38546;48.170;11.724;2023-07-20T03:28:01;20.30;99.90
3488;DHT22;38546;48.170;11.724;2023-07-20T03:30:54;20.10;99.90
3488;DHT22;38546;48.170;11.724;2023-07-20T03:33:44;20.20;99.90
3488;DHT22;38546;48.170;11.724;2023-07-20T03:36:33;20.20;99.70
3488;DHT22;38546;48.170;11.724;2023-07-20T03:39:22;20.30;99.50
3488;DHT22;38546;48.170;11.724;2023-07-20T03:42:11;20.20;99.30
3488;DHT22;38546;48.170;11.724;2023-07-20T03:45:01;20.40;99.90
3488;DHT22;38546;48.170;11.724;2023-07-20T03:47:51;20.30;99.90
3488;DHT22;38546;48.170;11.724;2023-07-20T03:50:41;19.90;99.90
3488;DHT22;38546;48.170;11.724;2023-07-20T03:53:30;19.50;99.90
3488;DHT22;38546;48.170;11.724;2023-07-20T03:56:21;18.90;99.90
3488;DHT22;38546;48.170;11.724;2023-07-20T03:59:10;18.50;99.90
3488;DHT22;38546;48.170;11.724;2023-07-20T04:02:00;18.20;99.90
3488;DHT22;38546;48.170;11.724;2023-07-20T04:04:50;18.00;99.90
3488;DHT22;38546;48.170;11.724;2023-07-20T04:07:39;17.90;99.90
3488;DHT22;38546;48.170;11.724;2023-07-20T04:10:29;17.80;99.90
3488;DHT22;38546;48.170;11.724;2023-07-20T04:13:19;17.80;99.90
3488;DHT22;38546;48.170;11.724;2023-07-20T04:16:08;17.80;99.90
3488;DHT22;38546;48.170;11.724;2023-07-20T04:18:57;17.80;99.90
3488;DHT22;38546;48.170;11.724;2023-07-20T04:21:47;17.80;99.90
3488;DHT22;38546;48.170;11.724;2023-07-20T04:24:36;17.80;99.90
3488;DHT22;38546;48.170;11.724;2023-07-20T04:27:25;18.00;99.90
3488;DHT22;38546;48.170;11.724;2023-07-20T04:30:17;17.90;99.90
3488;DHT22;38546;48.170;11.724;2023-07-20T04:33:09;17.80;99.90
3488;DHT22;38546;48.170;11.724;2023-07-20T04:35:58;17.80;99.90
3488;DHT22;38546;48.170;11.724;2023-07-20T04:38:47;17.90;99.90
3488;DHT22;38546;48.170;11.724;2023-07-20T04:41:37;18.00;99.90
3488;DHT22;38546;48.170;11.724;2023-07-20T04:44:26;18.00;99.90
3488;DHT22;38546;48.170;11.724;2023-07-20T04:47:15;18.00;99.90
3488;DHT22;38546;48.170;11.724;2023-07-20T04:50:05;18.00;99.90
3488;DHT22;38546;48.170;11.724;2023-07-20T04:52:55;18.10;99.90
3488;DHT22;38546;48.170;11.724;2023-07-20T04:55:49;18.20;99.90
3488;DHT22;38546;48.170;11.724;2023-07-20T04:58:42;18.20;99.90
3488;DHT22;38546;48.170;11.724;2023-07-20T05:01:32;18.50;99.90
3488;DHT22;38546;48.170;11.724;2023-07-20T05:04:21;18.50;99.90
3488;DHT22;38546;48.170;11.724;2023-07-20T05:07:10;18.50;99.90
3488;DHT22;38546;48.170;11.724;2023-07-20T05:09:59;18.40;99.90
3488;DHT22;38546;48.170;11.724;2023-07-20T05:12:48;18.50;99.90
3488;DHT22;38546;48.170;11.724;2023-07-20T05:15:38;18.60;99.90
3488;DHT22;38546;48.170;11.724;2023-07-20T05:18:27;18.60;99.90
3488;DHT22;38546;48.170;11.724;2023-07-20T05:21:17;18.60;99.90
3488;DHT22;38546;48.170;11.724;2023-07-20T05:24:07;18.80;99.90
3488;DHT22;38546;48.170;11.724;2023-07-20T05:26:57;18.80;99.90
3488;DHT22;38546;48.170;11.724;2023-07-20T05:29:47;18.80;99.90
3488;DHT22;38546;48.170;11.724;2023-07-20T05:32:36;18.90;99.90
3488;DHT22;38546;48.170;11.724;2023-07-20T05:35:26;19.00;99.90
3488;DHT22;38546;48.170;11.724;2023-07-20T05:38:15;19.10;99.90
3488;DHT22;38546;48.170;11.724;2023-07-20T05:41:05;19.20;99.90
3488;DHT22;38546;48.170;11.724;2023-07-20T05:43:56;19.30;99.90
3488;DHT22;38546;48.170;11.724;2023-07-20T05:46:45;19.30;99.90
3488;DHT22;38546;48.170;11.724;2023-07-20T05:49:35;19.40;99.90
3488;DHT22;38546;48.170;11.724;2023-07-20T05:52:25;19.50;99.90
3488;DHT22;38546;48.170;11.724;2023-07-20T05:55:14;19.60;99.90
3488;DHT22;38546;48.170;11.724;2023-07-20T05:58:04;19.70;99.90
3488;DHT22;38546;48.170;11.724;2023-07-20T06:00:54;19.60;99.90
3488;DHT22;38546;48.170;11.724;2023-07-20T06:03:43;19.60;99.90
3488;DHT22;38546;48.170;11.724;2023-07-20T06:06:33;19.60;99.90
3488;DHT22;38546;48.170;11.724;2023-07-20T06:09:23;19.70;99.90
3488;DHT22;38546;48.170;11.724;2023-07-20T06:12:12;19.70;99.90
3488;DHT22;38546;48.170;11.724;2023-07-20T06:15:05;19.60;99.90
3488;DHT22;38546;48.170;11.724;2023-07-20T06:18:12;19.80;99.90
3488;DHT22;38546;48.170;11.724;2023-07-20T06:21:02;20.10;99.90
3488;DHT22;38546;48.170;11.724;2023-07-20T06:23:51;20.00;99.90
3488;DHT22;38546;48.170;11.724;2023-07-20T06:26:41;20.20;99.90
3488;DHT22;38546;48.170;11.724;2023-07-20T06:29:30;20.20;99.90
3488;DHT22;38546;48.170;11.724;2023-07-20T06:32:19;20.20;99.90
3488;DHT22;38546;48.170;11.724;2023-07-20T06:35:08;20.10;99.90
3488;DHT22;38546;48.170;11.724;2023-07-20T06:37:58;20.20;99.90
3488;DHT22;38546;48.170;11.724;2023-07-20T06:40:52;20.50;99.90
3488;DHT22;38546;48.170;11.724;2023-07-20T06:43:41;20.50;99.90
3488;DHT22;38546;48.170;11.724;2023-07-20T06:46:31;20.70;99.90
3488;DHT22;38546;48.170;11.724;2023-07-20T06:49:28;20.90;99.90
3488;DHT22;38546;48.170;11.724;2023-07-20T06:52:17;20.80;99.90
3488;DHT22;38546;48.170;11.724;2023-07-20T06:55:07;20.90;99.90
3488;DHT22;38546;48.170;11.724;2023-07-20T06:57:57;21.10;99.90
3488;DHT22;38546;48.170;11.724;2023-07-20T07:00:46;21.00;99.90
3488;DHT22;38546;48.170;11.724;2023-07-20T07:03:36;20.90;99.90
3488;DHT22;38546;48.170;11.724;2023-07-20T07:06:25;21.00;99.90
3488;DHT22;38546;48.170;11.724;2023-07-20T07:09:16;20.90;99.90
3488;DHT22;38546;48.170;11.724;2023-07-20T07:12:06;21.00;99.90
3488;DHT22;38546;48.170;11.724;2023-07-20T07:14:55;21.00;99.90
3488;DHT22;38546;48.170;11.724;2023-07-20T07:17:44;21.10;99.90
3488;DHT22;38546;48.170;11.724;2023-07-20T07:20:33;21.00;99.90
3488;DHT22;38546;48.170;11.724;2023-07-20T07:23:22;21.20;99.90
3488;DHT22;38546;48.170;11.724;2023-07-20T07:26:11;21.20;99.90
3488;DHT22;38546;48.170;11.724;2023-07-20T07:29:00;21.20;99.90
3488;DHT22;38546;48.170;11.724;2023-07-20T07:31:49;21.30;99.90
3488;DHT22;38546;48.170;11.724;2023-07-20T07:34:38;21.30;99.90
3488;DHT22;38546;48.170;11.724;2023-07-20T07:37:28;21.50;99.90
3488;DHT22;38546;48.170;11.724;2023-07-20T07:40:17;21.60;99.40
3488;DHT22;38546;48.170;11.724;2023-07-20T07:43:07;21.70;99.20
3488;DHT22;38546;48.170;11.724;2023-07-20T07:45:57;21.80;98.10
3488;DHT22;38546;48.170;11.724;2023-07-20T07:48:46;21.60;98.70
3488;DHT22;38546;48.170;11.724;2023-07-20T07:51:36;21.50;99.00
3488;DHT22;38546;48.170;11.724;2023-07-20T07:54:25;21.60;99.00
3488;DHT22;38546;48.170;11.724;2023-07-20T07:57:14;21.60;99.60
3488;DHT22;38546;48.170;11.724;2023-07-20T08:00:03;21.70;99.60
3488;DHT22;38546;48.170;11.724;2023-07-20T08:02:53;21.90;99.40
3488;DHT22;38546;48.170;11.724;2023-07-20T08:05:42;21.90;98.50
3488;DHT22;38546;48.170;11.724;2023-07-20T08:08:32;21.90;98.70
3488;DHT22;38546;48.170;11.724;2023-07-20T08:11:22;22.30;98.50
3488;DHT22;38546;48.170;11.724;2023-07-20T08:14:13;22.50;98.80
3488;DHT22;38546;48.170;11.724;2023-07-20T08:17:02;22.80;98.50
3488;DHT22;38546;48.170;11.724;2023-07-20T08:19:51;23.00;96.70
3488;DHT22;38546;48.170;11.724;2023-07-20T08:22:41;22.90;96.00
3488;DHT22;38546;48.170;11.724;2023-07-20T08:25:30;22.70;95.60
3488;DHT22;38546;48.170;11.724;2023-07-20T08:28:19;22.90;95.60
3488;DHT22;38546;48.170;11.724;2023-07-20T08:31:09;22.90;95.30
3488;DHT22;38546;48.170;11.724;2023-07-20T08:33:58;22.80;94.90
3488;DHT22;38546;48.170;11.724;2023-07-20T08:36:47;22.60;95.00
3488;DHT22;38546;48.170;11.724;2023-07-20T08:39:37;22.50;95.40
3488;DHT22;38546;48.170;11.724;2023-07-20T08:42:27;22.40;95.60
3488;DHT22;38546;48.170;11.724;2023-07-20T08:45:17;22.40;96.10
3488;DHT22;38546;48.170;11.724;2023-07-20T08:48:08;22.30;95.90
3488;DHT22;38546;48.170;11.724;2023-07-20T08:50:58;22.70;95.50
3488;DHT22;38546;48.170;11.724;2023-07-20T08:53:50;22.90;94.60
3488;DHT22;38546;48.170;11.724;2023-07-20T08:56:41;23.00;94.30
3488;DHT22;38546;48.170;11.724;2023-07-20T08:59:35;23.00;94.60
3488;DHT22;38546;48.170;11.724;2023-07-20T09:02:26;23.10;94.80
3488;DHT22;38546;48.170;11.724;2023-07-20T09:05:16;23.20;94.80
3488;DHT22;38546;48.170;11.724;2023-07-20T09:08:07;23.20;95.30
3488;DHT22;38546;48.170;11.724;2023-07-20T09:10:57;23.40;95.00
3488;DHT22;38546;48.170;11.724;2023-07-20T09:13:46;23.50;94.40
3488;DHT22;38546;48.170;11.724;2023-07-20T09:16:54;23.50;93.60
3488;DHT22;38546;48.170;11.724;2023-07-20T09:19:48;23.50;93.00
3488;DHT22;38546;48.170;11.724;2023-07-20T09:22:38;23.10;93.90
3488;DHT22;38546;48.170;11.724;2023-07-20T09:25:28;23.00;94.20
3488;DHT22;38546;48.170;11.724;2023-07-20T09:28:18;23.10;94.20
3488;DHT22;38546;48.170;11.724;2023-07-20T09:31:16;23.40;93.80
3488;DHT22;38546;48.170;11.724;2023-07-20T09:34:08;23.70;94.70
3488;DHT22;38546;48.170;11.724;2023-07-20T09:37:00;23.80;94.60
3488;DHT22;38546;48.170;11.724;2023-07-20T09:39:52;23.90;95.10
3488;DHT22;38546;48.170;11.724;2023-07-20T09:42:42;23.90;93.30
3488;DHT22;38546;48.170;11.724;2023-07-20T09:45:50;23.80;93.10
3488;DHT22;38546;48.170;11.724;2023-07-20T09:48:53;23.80;92.50
3488;DHT22;38546;48.170;11.724;2023-07-20T09:51:44;23.80;93.00
3488;DHT22;38546;48.170;11.724;2023-07-20T09:54:38;23.60;91.40
3488;DHT22;38546;48.170;11.724;2023-07-20T09:57:27;23.40;91.60
3488;DHT22;38546;48.170;11.724;2023-07-20T10:00:18;23.30;92.10
3488;DHT22;38546;48.170;11.724;2023-07-20T10:03:08;23.40;92.40
3488;DHT22;38546;48.170;11.724;2023-07-20T10:06:05;23.50;92.60
3488;DHT22;38546;48.170;11.724;2023-07-20T10:09:02;23.60;91.40
3488;DHT22;38546;48.170;11.724;2023-07-20T10:11:53;23.80;91.50
3488;DHT22;38546;48.170;11.724;2023-07-20T10:14:59;23.90;93.30
3488;DHT22;38546;48.170;11.724;2023-07-20T10:18:14;23.70;91.60
3488;DHT22;38546;48.170;11.724;2023-07-20T10:21:07;23.80;92.10
3488;DHT22;38546;48.170;11.724;2023-07-20T10:23:59;23.80;91.70
3488;DHT22;38546;48.170;11.724;2023-07-20T10:26:50;24.00;91.90
3488;DHT22;38546;48.170;11.724;2023-07-20T10:29:41;24.10;91.30
3488;DHT22;38546;48.170;11.724;2023-07-20T10:32:31;23.90;91.70
3488;DHT22;38546;48.170;11.724;2023-07-20T10:35:20;23.90;91.60
3488;DHT22;38546;48.170;11.724;2023-07-20T10:38:10;23.70;92.30
3488;DHT22;38546;48.170;11.724;2023-07-20T10:40:59;23.60;92.30
3488;DHT22;38546;48.170;11.724;2023-07-20T10:43:49;23.70;92.10
3488;DHT22;38546;48.170;11.724;2023-07-20T10:46:43;23.70;92.30
3488;DHT22;38546;48.170;11.724;2023-07-20T10:49:58;23.90;92.60
3488;DHT22;38546;48.170;11.724;2023-07-20T10:53:13;23.80;92.50
3488;DHT22;38546;48.170;11.724;2023-07-20T10:56:12;24.10;93.40
3488;DHT22;38546;48.170;11.724;2023-07-20T10:59:18;24.40;92.60
3488;DHT22;38546;48.170;11.724;2023-07-20T11:02:09;24.60;91.80
3488;DHT22;38546;48.170;11.724;2023-07-20T11:04:58;24.90;91.40
3488;DHT22;38546;48.170;11.724;2023-07-20T11:07:47;24.70;91.10
3488;DHT22;38546;48.170;11.724;2023-07-20T11:10:37;24.80;91.50
3488;DHT22;38546;48.170;11.724;2023-07-20T11:13:26;24.90;91.30
3488;DHT22;38546;48.170;11.724;2023-07-20T11:16:16;25.20;91.30
3488;DHT22;38546;48.170;11.724;2023-07-20T11:19:13;25.40;91.60
3488;DHT22;38546;48.170;11.724;2023-07-20T11:22:06;25.40;91.10
3488;DHT22;38546;48.170;11.724;2023-07-20T11:24:59;25.40;90.80
3488;DHT22;38546;48.170;11.724;2023-07-20T11:27:49;25.30;91.30
3488;DHT22;38546;48.170;11.724;2023-07-20T11:30:39;25.40;91.00
3488;DHT22;38546;48.170;11.724;2023-07-20T11:33:28;25.70;92.10
3488;DHT22;38546;48.170;11.724;2023-07-20T11:36:17;25.80;90.80
3488;DHT22;38546;48.170;11.724;2023-07-20T11:39:09;25.70;90.30
3488;DHT22;38546;48.170;11.724;2023-07-20T11:41:59;25.30;90.30
3488;DHT22;38546;48.170;11.724;2023-07-20T11:44:51;24.70;90.90
3488;DHT22;38546;48.170;11.724;2023-07-20T11:47:41;24.80;91.80
3488;DHT22;38546;48.170;11.724;2023-07-20T11:50:31;25.00;91.80
3488;DHT22;38546;48.170;11.724;2023-07-20T11:53:21;25.00;91.60
3488;DHT22;38546;48.170;11.724;2023-07-20T11:56:11;25.20;91.40
3488;DHT22;38546;48.170;11.724;2023-07-20T11:59:01;25.10;91.00
3488;DHT22;38546;48.170;11.724;2023-07-20T12:01:52;25.20;91.50
3488;DHT22;38546;48.170;11.724;2023-07-20T12:04:42;25.60;90.70
3488;DHT22;38546;48.170;11.724;2023-07-20T12:07:36;25.50;90.30
3488;DHT22;38546;48.170;11.724;2023-07-20T12:10:27;25.90;90.20
3488;DHT22;38546;48.170;11.724;2023-07-20T12:13:17;26.10;90.60
3488;DHT22;38546;48.170;11.724;2023-07-20T12:16:13;26.10;90.40
3488;DHT22;38546;48.170;11.724;2023-07-20T12:19:09;26.50;90.00
3488;DHT22;38546;48.170;11.724;2023-07-20T12:21:59;26.80;87.90
3488;DHT22;38546;48.170;11.724;2023-07-20T12:24:52;26.80;87.40
3488;DHT22;38546;48.170;11.724;2023-07-20T12:27:44;26.30;88.00
3488;DHT22;38546;48.170;11.724;2023-07-20T12:30:33;26.40;89.80
3488;DHT22;38546;48.170;11.724;2023-07-20T12:33:23;26.40;88.70
3488;DHT22;38546;48.170;11.724;2023-07-20T12:36:13;26.30;89.80
3488;DHT22;38546;48.170;11.724;2023-07-20T12:39:03;26.50;89.40
3488;DHT22;38546;48.170;11.724;2023-07-20T12:41:54;26.40;88.40
3488;DHT22;38546;48.170;11.724;2023-07-20T12:44:44;25.80;88.90
3488;DHT22;38546;48.170;11.724;2023-07-20T12:47:33;25.60;90.10
3488;DHT22;38546;48.170;11.724;2023-07-20T12:50:22;25.60;90.80
3488;DHT22;38546;48.170;11.724;2023-07-20T12:53:12;25.70;90.00
3488;DHT22;38546;48.170;11.724;2023-07-20T12:56:02;25.80;89.40
3488;DHT22;38546;48.170;11.724;2023-07-20T12:58:52;25.80;89.30
3488;DHT22;38546;48.170;11.724;2023-07-20T13:01:41;25.80;89.40
3488;DHT22;38546;48.170;11.724;2023-07-20T13:04:32;25.70;90.10
3488;DHT22;38546;48.170;11.724;2023-07-20T13:07:33;25.70;90.40
3488;DHT22;38546;48.170;11.724;2023-07-20T13:10:23;25.90;90.20
3488;DHT22;38546;48.170;11.724;2023-07-20T13:13:13;26.00;89.40
3488;DHT22;38546;48.170;11.724;2023-07-20T13:16:03;26.00;88.70
3488;DHT22;38546;48.170;11.724;2023-07-20T13:18:52;25.80;89.50
3488;DHT22;38546;48.170;11.724;2023-07-20T13:21:42;25.70;88.40
3488;DHT22;38546;48.170;11.724;2023-07-20T13:24:31;25.60;88.10
3488;DHT22;38546;48.170;11.724;2023-07-20T13:27:20;25.70;88.40
3488;DHT22;38546;48.170;11.724;2023-07-20T13:30:11;25.50;89.20
3488;DHT22;38546;48.170;11.724;2023-07-20T13:33:05;25.40;90.70
3488;DHT22;38546;48.170;11.724;2023-07-20T13:35:54;25.50;89.30
3488;DHT22;38546;48.170;11.724;2023-07-20T13:38:44;25.50;87.90
3488;DHT22;38546;48.170;11.724;2023-07-20T13:41:33;25.50;89.50
3488;DHT22;38546;48.170;11.724;2023-07-20T13:44:23;25.50;88.70
3488;DHT22;38546;48.170;11.724;2023-07-20T13:47:12;25.50;89.30
3488;DHT22;38546;48.170;11.724;2023-07-20T13:50:02;25.50;88.90
3488;DHT22;38546;48.170;11.724;2023-07-20T13:52:53;25.50;88.30
3488;DHT22;38546;48.170;11.724;2023-07-20T13:55:42;25.60;89.20
3488;DHT22;38546;48.170;11.724;2023-07-20T13:58:32;25.40;90.50
3488;DHT22;38546;48.170;11.724;2023-07-20T14:01:22;25.40;89.90
3488;DHT22;38546;48.170;11.724;2023-07-20T14:04:13;25.50;86.60
3488;DHT22;38546;48.170;11.724;2023-07-20T14:07:03;25.40;88.70
3488;DHT22;38546;48.170;11.724;2023-07-20T14:09:52;25.50;88.90
3488;DHT22;38546;48.170;11.724;2023-07-20T14:12:41;25.60;89.00
3488;DHT22;38546;48.170;11.724;2023-07-20T14:15:30;25.70;88.50
3488;DHT22;38546;48.170;11.724;2023-07-20T14:18:20;25.70;88.20
3488;DHT22;38546;48.170;11.724;2023-07-20T14:21:09;25.80;88.30
3488;DHT22;38546;48.170;11.724;2023-07-20T14:23:59;25.90;86.70
3488;DHT22;38546;48.170;11.724;2023-07-20T14:26:48;25.90;85.90
3488;DHT22;38546;48.170;11.724;2023-07-20T14:29:38;25.80;86.10
3488;DHT22;38546;48.170;11.724;2023-07-20T14:32:27;25.70;87.60
3488;DHT22;38546;48.170;11.724;2023-07-20T14:35:16;25.60;90.00
3488;DHT22;38546;48.170;11.724;2023-07-20T14:38:06;25.70;90.00
3488;DHT22;38546;48.170;11.724;2023-07-20T14:40:55;25.90;88.50
3488;DHT22;38546;48.170;11.724;2023-07-20T14:43:45;25.80;89.90
3488;DHT22;38546;48.170;11.724;2023-07-20T14:46:34;25.80;86.80
3488;DHT22;38546;48.170;11.724;2023-07-20T14:49:26;25.80;89.10
3488;DHT22;38546;48.170;11.724;2023-07-20T14:52:15;26.00;87.30
3488;DHT22;38546;48.170;11.724;2023-07-20T14:55:05;26.10;88.30
3488;DHT22;38546;48.170;11.724;2023-07-20T14:57:55;26.20;86.30
3488;DHT22;38546;48.170;11.724;2023-07-20T15:00:44;26.20;85.70
3488;DHT22;38546;48.170;11.724;2023-07-20T15:03:33;26.10;86.20
3488;DHT22;38546;48.170;11.724;2023-07-20T15:06:23;26.00;86.10
3488;DHT22;38546;48.170;11.724;2023-07-20T15:09:12;26.10;86.20
3488;DHT22;38546;48.170;11.724;2023-07-20T15:12:02;26.10;86.10
3488;DHT22;38546;48.170;11.724;2023-07-20T15:15:25;26.30;86.70
3488;DHT22;38546;48.170;11.724;2023-07-20T15:18:14;26.20;85.00
3488;DHT22;38546;48.170;11.724;2023-07-20T15:21:03;25.90;87.20
3488;DHT22;38546;48.170;11.724;2023-07-20T15:23:53;25.90;86.60
3488;DHT22;38546;48.170;11.724;2023-07-20T15:26:43;26.00;85.30
3488;DHT22;38546;48.170;11.724;2023-07-20T15:29:33;26.00;85.60
3488;DHT22;38546;48.170;11.724;2023-07-20T15:32:22;26.00;86.80
3488;DHT22;38546;48.170;11.724;2023-07-20T15:35:11;26.10;85.50
3488;DHT22;38546;48.170;11.724;2023-07-20T15:38:00;26.00;88.20
3488;DHT22;38546;48.170;11.724;2023-07-20T15:40:49;26.30;85.80
3488;DHT22;38546;48.170;11.724;2023-07-20T15:43:39;26.20;86.50
3488;DHT22;38546;48.170;11.724;2023-07-20T15:46:46;26.20;85.90
3488;DHT22;38546;48.170;11.724;2023-07-20T15:49:37;26.10;87.50
3488;DHT22;38546;48.170;11.724;2023-07-20T15:52:27;26.00;85.40
3488;DHT22;38546;48.170;11.724;2023-07-20T15:55:16;26.00;86.60
3488;DHT22;38546;48.170;11.724;2023-07-20T15:58:06;25.90;86.50
3488;DHT22;38546;48.170;11.724;2023-07-20T16:00:56;25.80;86.60
3488;DHT22;38546;48.170;11.724;2023-07-20T16:03:45;25.80;87.20
3488;DHT22;38546;48.170;11.724;2023-07-20T16:06:34;25.90;87.20
3488;DHT22;38546;48.170;11.724;2023-07-20T16:09:24;26.10;85.90
3488;DHT22;38546;48.170;11.724;2023-07-20T16:12:13;26.00;85.10
3488;DHT22;38546;48.170;11.724;2023-07-20T16:15:03;26.00;86.60
3488;DHT22;38546;48.170;11.724;2023-07-20T16:17:53;25.90;86.30
3488;DHT22;38546;48.170;11.724;2023-07-20T16:20:42;26.00;86.40
3488;DHT22;38546;48.170;11.724;2023-07-20T16:23:31;26.00;86.00
3488;DHT22;38546;48.170;11.724;2023-07-20T16:26:20;26.00;86.00
3488;DHT22;38546;48.170;11.724;2023-07-20T16:29:09;26.00;85.70
3488;DHT22;38546;48.170;11.724;2023-07-20T16:31:59;26.10;85.40
3488;DHT22;38546;48.170;11.724;2023-07-20T16:34:48;26.10;86.00
3488;DHT22;38546;48.170;11.724;2023-07-20T16:37:37;26.00;85.80
3488;DHT22;38546;48.170;11.724;2023-07-20T16:40:26;26.00;85.30
3488;DHT22;38546;48.170;11.724;2023-07-20T16:43:16;26.30;83.70
3488;DHT22;38546;48.170;11.724;2023-07-20T16:46:07;26.20;83.40
3488;DHT22;38546;48.170;11.724;2023-07-20T16:48:56;26.10;83.20
3488;DHT22;38546;48.170;11.724;2023-07-20T16:51:47;25.90;84.40
3488;DHT22;38546;48.170;11.724;2023-07-20T16:54:36;25.80;84.40
3488;DHT22;38546;48.170;11.724;2023-07-20T16:57:25;25.50;84.80
3488;DHT22;38546;48.170;11.724;2023-07-20T17:00:14;25.60;86.60
3488;DHT22;38546;48.170;11.724;2023-07-20T17:03:06;25.60;85.30
3488;DHT22;38546;48.170;11.724;2023-07-20T17:05:55;25.70;84.70
3488;DHT22;38546;48.170;11.724;2023-07-20T17:08:44;25.70;84.80
3488;DHT22;38546;48.170;11.724;2023-07-20T17:11:33;25.70;83.60
3488;DHT22;38546;48.170;11.724;2023-07-20T17:14:22;25.60;84.60
3488;DHT22;38546;48.170;11.724;2023-07-20T17:17:11;25.50;84.50
3488;DHT22;38546;48.170;11.724;2023-07-20T17:20:00;25.60;84.90
3488;DHT22;38546;48.170;11.724;2023-07-20T17:22:49;25.60;84.50
3488;DHT22;38546;48.170;11.724;2023-07-20T17:25:50;25.40;84.70
3488;DHT22;38546;48.170;11.724;2023-07-20T17:28:39;25.70;82.90
3488;DHT22;38546;48.170;11.724;2023-07-20T17:31:28;25.40;82.60
3488;DHT22;38546;48.170;11.724;2023-07-20T17:34:17;25.30;83.40
3488;DHT22;38546;48.170;11.724;2023-07-20T17:37:07;25.10;85.00
3488;DHT22;38546;48.170;11.724;2023-07-20T17:39:55;25.20;84.10
3488;DHT22;38546;48.170;11.724;2023-07-20T17:42:44;25.10;82.90
3488;DHT22;38546;48.170;11.724;2023-07-20T17:45:36;24.90;84.50
3488;DHT22;38546;48.170;11.724;2023-07-20T17:48:24;24.90;83.60
3488;DHT22;38546;48.170;11.724;2023-07-20T17:51:13;24.70;84.30
3488;DHT22;38546;48.170;11.724;2023-07-20T17:54:04;24.70;86.40
3488;DHT22;38546;48.170;11.724;2023-07-20T17:56:53;24.70;85.20
3488;DHT22;38546;48.170;11.724;2023-07-20T17:59:42;25.00;83.30
3488;DHT22;38546;48.170;11.724;2023-07-20T18:02:31;24.90;83.30